createdAt,value
2022-10-22T00:00:00.586Z,3.30
2022-10-22T00:02:28.052Z,2.73
2022-10-22T00:04:57.065Z,1.97
2022-10-22T00:07:24.424Z,3.40
2022-10-22T00:09:51.443Z,1.10
2022-10-22T00:12:23.101Z,1.27
2022-10-22T00:14:50.135Z,0.73
2022-10-22T00:17:17.494Z,1.33
2022-10-22T00:19:44.430Z,1.70
2022-10-22T00:22:12.447Z,2.50
2022-10-22T00:24:39.931Z,2.57
2022-10-22T00:27:08.735Z,4.93
2022-10-22T00:29:35.665Z,2.57
2022-10-22T00:32:02.728Z,3.10
2022-10-22T00:34:29.549Z,1.20
2022-10-22T00:36:56.675Z,1.50
2022-10-22T00:39:25.124Z,1.93
2022-10-22T00:41:53.957Z,3.40
2022-10-22T00:44:58.712Z,2.70
2022-10-22T00:47:27.490Z,1.73
2022-10-22T00:49:56.083Z,2.07
2022-10-22T00:52:23.376Z,1.60
2022-10-22T00:54:51.680Z,1.73
2022-10-22T00:57:20.513Z,2.10
2022-10-22T00:59:48.761Z,2.30
2022-10-22T01:02:16.983Z,2.13
2022-10-22T01:04:44.729Z,4.37
2022-10-22T01:07:20.208Z,2.70
2022-10-22T01:09:49.798Z,2.53
2022-10-22T01:12:19.477Z,2.97
2022-10-22T01:15:05.279Z,4.80
2022-10-22T01:17:43.387Z,4.17
2022-10-22T01:20:23.468Z,1.33
2022-10-22T01:23:09.107Z,1.37
2022-10-22T01:25:42.524Z,1.13
2022-10-22T01:28:40.558Z,1.43
2022-10-22T01:31:09.944Z,0.73
2022-10-22T01:33:37.348Z,1.17
2022-10-22T01:36:04.973Z,7.37
2022-10-22T01:38:32.701Z,2.10
2022-10-22T01:41:01.972Z,1.23
2022-10-22T01:43:28.843Z,3.23
2022-10-22T01:46:00.340Z,1.40
2022-10-22T01:48:56.298Z,6.17
2022-10-22T01:51:51.010Z,1.30
2022-10-22T01:54:54.468Z,0.90
2022-10-22T01:57:41.506Z,1.50
2022-10-22T02:00:11.192Z,0.80
2022-10-22T02:03:02.185Z,1.57
2022-10-22T02:05:33.861Z,0.90
2022-10-22T02:08:09.354Z,1.50
2022-10-22T02:10:42.336Z,1.07
2022-10-22T02:13:15.944Z,2.80
2022-10-22T02:15:46.057Z,0.73
2022-10-22T02:18:14.818Z,1.20
2022-10-22T02:20:42.541Z,3.17
2022-10-22T02:23:10.399Z,2.93
2022-10-22T02:25:40.839Z,2.00
2022-10-22T02:28:28.044Z,2.27
2022-10-22T02:31:13.584Z,5.73
2022-10-22T02:33:46.609Z,1.13
2022-10-22T02:36:15.723Z,1.20
2022-10-22T02:38:43.458Z,2.83
2022-10-22T02:41:11.042Z,1.50
2022-10-22T02:43:43.020Z,1.60
2022-10-22T02:46:11.110Z,1.70
2022-10-22T02:48:38.159Z,3.30
2022-10-22T02:51:05.256Z,3.03
2022-10-22T02:53:32.308Z,3.53
2022-10-22T02:55:59.993Z,1.80
2022-10-22T02:58:26.933Z,2.90
2022-10-22T03:00:54.178Z,1.73
2022-10-22T03:03:21.159Z,1.60
2022-10-22T03:05:48.295Z,1.80
2022-10-22T03:08:15.281Z,1.63
2022-10-22T03:10:42.285Z,1.47
2022-10-22T03:13:09.305Z,2.30
2022-10-22T03:15:36.221Z,1.30
2022-10-22T03:18:03.275Z,2.70
2022-10-22T03:20:30.160Z,4.33
2022-10-22T03:22:57.887Z,1.60
2022-10-22T03:25:27.009Z,0.80
2022-10-22T03:27:55.439Z,3.83
2022-10-22T03:30:22.788Z,1.97
2022-10-22T03:32:49.710Z,1.90
2022-10-22T03:35:16.737Z,3.00
2022-10-22T03:37:43.839Z,1.00
2022-10-22T03:40:11.642Z,3.53
2022-10-22T03:42:39.154Z,1.00
2022-10-22T03:45:06.987Z,3.20
2022-10-22T03:47:34.657Z,1.00
2022-10-22T03:50:01.582Z,1.10
2022-10-22T03:52:28.679Z,1.23
2022-10-22T03:54:55.657Z,0.93
2022-10-22T03:57:22.831Z,2.30
2022-10-22T03:59:50.989Z,0.60
2022-10-22T04:02:17.922Z,0.70
2022-10-22T04:04:44.853Z,0.70
2022-10-22T04:07:11.829Z,2.13
2022-10-22T04:09:38.817Z,1.17
2022-10-22T04:12:07.927Z,1.80
2022-10-22T04:14:35.071Z,0.67
2022-10-22T04:17:02.281Z,0.87
2022-10-22T04:19:29.357Z,0.63
2022-10-22T04:21:59.182Z,0.43
2022-10-22T04:24:26.814Z,0.57
2022-10-22T04:26:54.823Z,0.40
2022-10-22T04:29:21.890Z,0.50
2022-10-22T04:31:49.037Z,0.93
2022-10-22T04:34:16.133Z,2.10
2022-10-22T04:36:43.137Z,1.40
2022-10-22T04:39:10.112Z,0.50
2022-10-22T04:41:39.196Z,2.77
2022-10-22T04:44:08.149Z,0.93
2022-10-22T04:46:37.924Z,0.70
2022-10-22T04:49:05.197Z,0.73
2022-10-22T04:51:32.507Z,0.77
2022-10-22T04:53:59.627Z,0.90
2022-10-22T04:56:29.778Z,0.97
2022-10-22T04:59:02.190Z,2.63
2022-10-22T05:01:32.040Z,0.90
2022-10-22T05:04:01.593Z,2.77
2022-10-22T05:06:30.339Z,0.90
2022-10-22T05:09:01.826Z,0.70
2022-10-22T05:11:41.717Z,0.90
2022-10-22T05:14:10.161Z,1.17
2022-10-22T05:16:38.329Z,1.10
2022-10-22T05:19:06.682Z,0.80
2022-10-22T05:21:34.172Z,2.20
2022-10-22T05:24:01.122Z,0.70
2022-10-22T05:26:29.016Z,1.30
2022-10-22T05:28:57.372Z,1.77
2022-10-22T05:31:24.554Z,1.10
2022-10-22T05:33:51.550Z,1.70
2022-10-22T05:36:21.704Z,1.70
2022-10-22T05:38:49.954Z,1.80
2022-10-22T05:41:25.168Z,3.23
2022-10-22T05:43:55.337Z,2.67
2022-10-22T05:46:24.027Z,2.87
2022-10-22T05:48:52.444Z,4.17
2022-10-22T05:51:20.291Z,4.60
2022-10-22T05:53:50.981Z,3.73
2022-10-22T05:56:17.932Z,4.03
2022-10-22T05:58:45.717Z,6.37
2022-10-22T06:01:18.846Z,4.57
2022-10-22T06:03:47.201Z,5.70
2022-10-22T06:06:20.342Z,5.03
2022-10-22T06:08:52.406Z,6.17
2022-10-22T06:11:22.057Z,6.27
2022-10-22T06:13:50.657Z,5.20
2022-10-22T06:16:18.031Z,5.50
2022-10-22T06:18:45.024Z,6.53
2022-10-22T06:21:14.967Z,6.10
2022-10-22T06:23:42.811Z,7.17
2022-10-22T06:26:11.049Z,6.33
2022-10-22T06:28:38.389Z,7.97
2022-10-22T06:31:05.934Z,7.60
2022-10-22T06:33:34.416Z,7.70
2022-10-22T06:36:09.474Z,6.00
2022-10-22T06:38:36.706Z,5.97
2022-10-22T06:41:06.141Z,7.23
2022-10-22T06:43:33.343Z,6.13
2022-10-22T06:46:02.218Z,7.13
2022-10-22T06:48:29.905Z,7.27
2022-10-22T06:51:00.856Z,8.03
2022-10-22T06:53:27.762Z,7.83
2022-10-22T06:55:54.932Z,9.23
2022-10-22T06:58:22.100Z,7.77
2022-10-22T07:00:49.093Z,9.27
2022-10-22T07:03:16.376Z,11.47
2022-10-22T07:05:43.405Z,7.90
2022-10-22T07:08:10.386Z,10.70
2022-10-22T07:10:37.306Z,10.07
2022-10-22T07:13:04.161Z,9.13
2022-10-22T07:15:31.168Z,10.87
2022-10-22T07:17:58.372Z,9.60
2022-10-22T07:20:25.573Z,12.07
2022-10-22T07:22:52.488Z,7.20
2022-10-22T07:25:19.531Z,8.83
2022-10-22T07:27:46.561Z,9.53
2022-10-22T07:30:13.710Z,8.93
2022-10-22T07:32:40.630Z,8.57
2022-10-22T07:35:08.041Z,10.87
2022-10-22T07:37:35.235Z,7.50
2022-10-22T07:40:03.925Z,7.87
2022-10-22T07:42:31.295Z,7.53
2022-10-22T07:44:58.126Z,10.20
2022-10-22T07:47:25.091Z,6.97
2022-10-22T07:49:52.007Z,6.60
2022-10-22T07:52:19.219Z,6.03
2022-10-22T07:54:46.097Z,7.00
2022-10-22T07:57:13.073Z,5.07
2022-10-22T07:59:40.042Z,4.27
2022-10-22T08:02:07.590Z,5.27
2022-10-22T08:04:34.575Z,3.57
2022-10-22T08:07:02.015Z,3.07
2022-10-22T08:09:29.045Z,3.03
2022-10-22T08:11:55.959Z,3.00
2022-10-22T08:14:23.185Z,2.37
2022-10-22T08:16:50.193Z,2.00
2022-10-22T08:19:21.289Z,3.53
2022-10-22T08:21:48.876Z,2.58
2022-10-22T08:24:16.146Z,2.15
2022-10-22T08:26:43.152Z,2.22
2022-10-22T08:29:10.090Z,2.15
2022-10-22T08:31:37.256Z,3.33
2022-10-22T08:34:05.666Z,2.40
2022-10-22T08:36:32.697Z,3.50
2022-10-22T08:38:59.649Z,2.30
2022-10-22T08:41:26.868Z,3.97
2022-10-22T08:44:18.458Z,2.87
2022-10-22T08:47:13.059Z,2.70
2022-10-22T08:49:43.066Z,2.00
2022-10-22T08:52:15.630Z,2.70
2022-10-22T08:54:58.358Z,2.73
2022-10-22T08:57:52.586Z,2.57
2022-10-22T09:00:46.451Z,2.03
2022-10-22T09:03:19.603Z,3.07
2022-10-22T09:05:49.579Z,1.97
2022-10-22T09:08:19.490Z,2.07
2022-10-22T09:11:02.111Z,2.30
2022-10-22T09:13:29.838Z,1.80
2022-10-22T09:16:01.716Z,2.40
2022-10-22T09:18:53.417Z,2.10
2022-10-22T09:21:42.533Z,1.30
2022-10-22T09:24:23.605Z,1.50
2022-10-22T09:26:51.331Z,3.73
2022-10-22T09:29:23.241Z,1.50
2022-10-22T09:31:50.313Z,2.70
2022-10-22T09:34:21.343Z,2.60
2022-10-22T09:36:48.455Z,1.63
2022-10-22T09:39:27.927Z,1.77
2022-10-22T09:41:54.884Z,1.93
2022-10-22T09:44:22.353Z,2.00
2022-10-22T09:46:49.632Z,2.20
2022-10-22T09:49:22.535Z,2.40
2022-10-22T09:51:52.045Z,3.00
2022-10-22T09:54:25.048Z,1.83
2022-10-22T09:57:12.439Z,3.83
2022-10-22T09:59:42.401Z,1.60
2022-10-22T10:02:19.568Z,3.27
2022-10-22T10:04:51.184Z,2.27
2022-10-22T10:07:27.398Z,3.60
2022-10-22T10:09:54.958Z,1.67
2022-10-22T10:12:32.065Z,2.27
2022-10-22T10:15:20.174Z,1.20
2022-10-22T10:17:55.328Z,2.00
2022-10-22T10:20:48.863Z,1.40
2022-10-22T10:23:49.628Z,1.10
2022-10-22T10:26:27.371Z,2.60
2022-10-22T10:28:54.452Z,2.13
2022-10-22T10:32:00.640Z,1.03
2022-10-22T10:35:00.858Z,3.07
2022-10-22T10:37:43.820Z,1.87
2022-10-22T10:40:31.782Z,2.87
2022-10-22T10:43:24.997Z,2.40
2022-10-22T10:46:14.040Z,4.80
2022-10-22T10:49:00.202Z,1.50
2022-10-22T10:51:53.571Z,2.83
2022-10-22T10:54:41.095Z,2.53
2022-10-22T10:57:34.325Z,3.47
2022-10-22T11:00:16.108Z,2.63
2022-10-22T11:03:04.190Z,2.43
2022-10-22T11:05:42.271Z,2.87
2022-10-22T11:08:19.132Z,1.40
2022-10-22T11:10:50.449Z,3.60
2022-10-22T11:13:22.441Z,2.77
2022-10-22T11:16:11.199Z,1.37
2022-10-22T11:18:47.231Z,2.67
2022-10-22T11:21:21.887Z,1.30
2022-10-22T11:23:54.965Z,1.60
2022-10-22T11:26:27.736Z,3.50
2022-10-22T11:28:59.058Z,2.10
2022-10-22T11:31:27.386Z,3.50
2022-10-22T11:34:42.363Z,1.57
2022-10-22T11:37:11.910Z,2.10
2022-10-22T11:39:48.662Z,2.00
2022-10-22T11:42:23.314Z,5.07
2022-10-22T11:45:01.039Z,4.90
2022-10-22T11:47:33.858Z,1.80
2022-10-22T11:50:26.187Z,1.37
2022-10-22T11:53:13.274Z,4.03
2022-10-22T11:55:45.832Z,2.43
2022-10-22T11:58:30.679Z,1.87
2022-10-22T12:01:21.378Z,0.80
2022-10-22T12:03:49.957Z,1.93
2022-10-22T12:06:21.608Z,4.93
2022-10-22T12:08:56.884Z,3.80
2022-10-22T12:11:35.186Z,1.17
2022-10-22T12:14:18.912Z,5.10
2022-10-22T12:16:57.727Z,1.40
2022-10-22T12:19:27.942Z,1.40
2022-10-22T12:21:59.479Z,1.20
2022-10-22T12:24:31.303Z,2.43
2022-10-22T12:26:58.235Z,2.53
2022-10-22T12:29:26.685Z,4.50
2022-10-22T12:31:55.058Z,2.87
2022-10-22T12:34:24.211Z,2.90
2022-10-22T12:36:53.382Z,1.00
2022-10-22T12:39:25.486Z,2.63
2022-10-22T12:41:53.744Z,1.93
2022-10-22T12:44:20.604Z,4.00
2022-10-22T12:46:52.975Z,4.43
2022-10-22T12:49:43.674Z,3.63
2022-10-22T12:52:17.055Z,2.10
2022-10-22T12:54:47.197Z,2.37
2022-10-22T12:57:17.198Z,3.43
2022-10-22T12:59:49.799Z,1.93
2022-10-22T13:02:26.149Z,1.63
2022-10-22T13:05:18.300Z,1.57
2022-10-22T13:07:50.825Z,1.67
2022-10-22T13:10:40.583Z,2.63
2022-10-22T13:13:27.634Z,2.90
2022-10-22T13:15:56.920Z,2.17
2022-10-22T13:18:25.250Z,3.43
2022-10-22T13:20:56.822Z,2.77
2022-10-22T13:23:26.679Z,5.40
2022-10-22T13:26:16.620Z,0.80
2022-10-22T13:28:54.257Z,2.43
2022-10-22T13:31:27.623Z,1.00
2022-10-22T13:33:58.427Z,1.20
2022-10-22T13:36:25.488Z,1.20
2022-10-22T13:38:52.375Z,1.40
2022-10-22T13:41:22.461Z,1.02
2022-10-22T13:43:49.965Z,2.75
2022-10-22T13:46:17.783Z,1.50
2022-10-22T13:48:46.094Z,2.37
2022-10-22T13:51:18.594Z,1.00
2022-10-22T13:53:47.770Z,1.57
2022-10-22T13:56:17.599Z,1.60
2022-10-22T13:58:45.796Z,2.47
2022-10-22T14:01:23.104Z,1.05
2022-10-22T14:03:52.672Z,1.07
2022-10-22T14:06:20.493Z,0.77
2022-10-22T14:08:51.712Z,2.42
2022-10-22T14:11:18.838Z,1.02
2022-10-22T14:13:45.811Z,1.63
2022-10-22T14:16:20.095Z,1.38
2022-10-22T14:18:47.801Z,1.80
2022-10-22T14:21:16.771Z,3.75
2022-10-22T14:23:47.175Z,1.15
2022-10-22T14:26:28.255Z,0.75
2022-10-22T14:29:11.655Z,5.25
2022-10-22T14:31:44.654Z,1.60
2022-10-22T14:34:14.207Z,0.90
2022-10-22T14:36:43.836Z,0.60
2022-10-22T14:39:11.938Z,1.02
2022-10-22T14:41:39.172Z,2.75
2022-10-22T14:44:06.256Z,1.27
2022-10-22T14:46:33.876Z,1.10
2022-10-22T14:49:00.721Z,1.20
2022-10-22T14:51:27.805Z,1.45
2022-10-22T14:53:54.929Z,1.75
2022-10-22T14:56:23.339Z,1.55
2022-10-22T14:58:50.949Z,5.30
2022-10-22T15:01:18.233Z,1.00
2022-10-22T15:03:45.244Z,1.42
2022-10-22T15:06:12.470Z,4.20
2022-10-22T15:08:39.652Z,4.50
2022-10-22T15:11:10.474Z,4.00
2022-10-22T15:13:38.167Z,2.50
2022-10-22T15:16:10.517Z,2.03
2022-10-22T15:18:38.233Z,2.87
2022-10-22T15:21:08.660Z,3.67
2022-10-22T15:23:36.708Z,1.48
2022-10-22T15:26:03.620Z,4.07
2022-10-22T15:28:30.709Z,4.63
2022-10-22T15:31:00.238Z,3.23
2022-10-22T15:33:28.556Z,2.60
2022-10-22T15:35:56.736Z,2.33
2022-10-22T15:41:05.794Z,4.00
2022-10-22T15:43:34.367Z,2.30
2022-10-22T15:46:18.337Z,0.83
2022-10-22T15:48:46.086Z,3.03
2022-10-22T15:51:18.429Z,3.63
2022-10-22T15:53:51.866Z,1.50
2022-10-22T15:56:19.085Z,5.57
2022-10-22T15:58:46.831Z,5.33
2022-10-22T16:01:14.892Z,2.97
2022-10-22T16:03:41.978Z,2.63
2022-10-22T16:06:09.902Z,2.33
2022-10-22T16:08:39.029Z,1.03
2022-10-22T16:11:06.185Z,1.27
2022-10-22T16:13:33.326Z,1.93
2022-10-22T16:16:06.235Z,3.53
2022-10-22T16:18:33.176Z,2.90
2022-10-22T16:21:00.286Z,6.13
2022-10-22T16:23:27.478Z,1.20
2022-10-22T16:25:54.646Z,5.63
2022-10-22T16:28:21.581Z,6.43
2022-10-22T16:30:48.740Z,12.13
2022-10-22T16:33:15.815Z,2.67
2022-10-22T16:35:42.992Z,4.40
2022-10-22T16:38:10.714Z,7.43
2022-10-22T16:40:37.826Z,3.50
2022-10-22T16:43:05.171Z,3.13
2022-10-22T16:45:32.277Z,2.67
2022-10-22T16:47:59.300Z,4.77
2022-10-22T16:50:26.410Z,4.80
2022-10-22T16:52:53.508Z,4.43
2022-10-22T16:55:20.698Z,5.87
2022-10-22T16:57:52.367Z,2.13
2022-10-22T17:00:20.342Z,6.60
2022-10-22T17:02:53.082Z,4.67
2022-10-22T17:05:21.089Z,2.53
2022-10-22T17:07:48.468Z,4.87
2022-10-22T17:10:16.433Z,5.43
2022-10-22T17:12:43.712Z,3.40
2022-10-22T17:15:10.941Z,2.63
2022-10-22T17:17:39.050Z,3.40
2022-10-22T17:20:06.985Z,3.07
2022-10-22T17:22:34.204Z,6.57
2022-10-22T17:25:16.654Z,5.93
2022-10-22T17:27:44.612Z,8.23
2022-10-22T17:30:23.348Z,6.03
2022-10-22T17:32:54.331Z,8.10
2022-10-22T17:35:21.281Z,5.60
2022-10-22T17:37:48.340Z,6.07
2022-10-22T17:40:16.183Z,10.20
2022-10-22T17:42:45.454Z,5.30
2022-10-22T17:45:12.518Z,9.27
2022-10-22T17:47:39.785Z,13.13
2022-10-22T17:50:07.255Z,9.30
2022-10-22T17:52:35.228Z,3.97
2022-10-22T17:55:02.528Z,6.70
2022-10-22T17:57:29.670Z,3.37
2022-10-22T17:59:56.750Z,6.27
2022-10-22T18:02:23.859Z,5.97
2022-10-22T18:04:52.245Z,4.67
2022-10-22T18:07:20.789Z,5.13
2022-10-22T18:09:48.083Z,3.20
2022-10-22T18:12:15.134Z,2.80
2022-10-22T18:14:42.164Z,3.47
2022-10-22T18:17:09.164Z,7.13
2022-10-22T18:19:36.228Z,4.43
2022-10-22T18:22:03.420Z,9.90
2022-10-22T18:24:30.308Z,3.83
2022-10-22T18:26:57.178Z,4.67
2022-10-22T18:29:24.251Z,6.13
2022-10-22T18:31:52.503Z,4.67
2022-10-22T18:34:21.791Z,4.77
2022-10-22T18:36:50.921Z,3.13
2022-10-22T18:39:17.976Z,2.60
2022-10-22T18:41:44.978Z,5.50
2022-10-22T18:44:13.828Z,1.80
2022-10-22T18:46:41.085Z,3.93
2022-10-22T18:49:08.622Z,5.83
2022-10-22T18:51:36.420Z,5.27
2022-10-22T18:54:18.230Z,3.90
2022-10-22T18:56:49.499Z,9.20
2022-10-22T18:59:24.060Z,5.50
2022-10-22T19:01:55.711Z,4.50
2022-10-22T19:04:22.764Z,2.90
2022-10-22T19:06:49.959Z,2.97
2022-10-22T19:09:17.258Z,3.30
2022-10-22T19:11:45.552Z,3.10
2022-10-22T19:14:14.817Z,3.63
2022-10-22T19:16:42.045Z,6.83
2022-10-22T19:19:09.090Z,4.63
2022-10-22T19:21:37.389Z,4.17
2022-10-22T19:24:04.669Z,4.03
2022-10-22T19:26:32.573Z,6.00
2022-10-22T19:29:00.854Z,4.60
2022-10-22T19:31:30.142Z,2.73
2022-10-22T19:33:58.467Z,2.43
2022-10-22T19:36:27.662Z,5.00
2022-10-22T19:38:55.343Z,9.63
2022-10-22T19:41:24.038Z,6.33
2022-10-22T19:43:53.649Z,6.30
2022-10-22T19:46:22.106Z,4.10
2022-10-22T19:48:51.285Z,3.70
2022-10-22T19:51:21.819Z,5.37
2022-10-22T19:53:49.609Z,3.80
2022-10-22T19:56:19.827Z,4.13
2022-10-22T19:58:46.830Z,6.17
2022-10-22T20:01:15.877Z,6.67
2022-10-22T20:03:43.333Z,5.53
2022-10-22T20:06:11.921Z,6.37
2022-10-22T20:08:39.318Z,4.30
2022-10-22T20:11:10.734Z,3.17
2022-10-22T20:16:05.687Z,4.17
2022-10-22T20:18:34.147Z,9.57
2022-10-22T20:21:09.102Z,4.00
2022-10-22T20:23:36.357Z,3.47
2022-10-22T20:26:05.149Z,4.70
2022-10-22T20:28:32.551Z,5.37
2022-10-22T20:30:59.653Z,3.27
2022-10-22T20:33:26.555Z,2.67
2022-10-22T20:36:00.878Z,3.43
2022-10-22T20:38:28.261Z,8.83
2022-10-22T20:41:00.506Z,5.70
2022-10-22T20:43:27.392Z,4.80
2022-10-22T20:45:54.668Z,3.60
2022-10-22T20:48:24.462Z,6.83
2022-10-22T20:50:51.447Z,5.27
2022-10-22T20:53:18.391Z,2.73
2022-10-22T20:55:47.373Z,3.43
2022-10-22T20:58:14.416Z,8.73
2022-10-22T21:00:41.416Z,5.67
2022-10-22T21:03:08.297Z,8.57
2022-10-22T21:05:35.317Z,10.87
2022-10-22T21:08:02.571Z,9.00
2022-10-22T21:10:32.475Z,13.40
2022-10-22T21:13:00.398Z,17.23
2022-10-22T21:15:27.900Z,13.17
2022-10-22T21:17:54.898Z,9.10
2022-10-22T21:20:24.601Z,11.97
2022-10-22T21:22:52.088Z,8.00
2022-10-22T21:25:19.055Z,5.93
2022-10-22T21:27:46.050Z,6.43
2022-10-22T21:30:13.317Z,9.67
2022-10-22T21:32:40.565Z,5.63
2022-10-22T21:35:08.174Z,3.73
2022-10-22T21:37:35.268Z,4.57
2022-10-22T21:40:03.838Z,6.03
2022-10-22T21:42:31.113Z,3.53
2022-10-22T21:44:58.256Z,4.10
2022-10-22T21:47:25.259Z,5.77
2022-10-22T21:49:52.236Z,5.30
2022-10-22T21:52:19.169Z,6.53
2022-10-22T21:54:46.039Z,8.23
2022-10-22T21:57:13.027Z,5.20
2022-10-22T21:59:39.987Z,6.80
2022-10-22T22:02:07.120Z,9.40
2022-10-22T22:04:34.196Z,5.13
2022-10-22T22:07:01.112Z,4.17
2022-10-22T22:09:28.042Z,4.10
2022-10-22T22:11:54.929Z,4.80
2022-10-22T22:14:21.990Z,8.50
2022-10-22T22:16:49.228Z,4.67
2022-10-22T22:19:16.173Z,3.30
2022-10-22T22:21:44.188Z,4.87
2022-10-22T22:24:12.772Z,7.50
2022-10-22T22:26:40.452Z,3.73
2022-10-22T22:29:07.391Z,3.73
2022-10-22T22:31:35.652Z,6.37
2022-10-22T22:34:09.933Z,3.57
2022-10-22T22:36:39.302Z,4.10
2022-10-22T22:39:07.975Z,4.47
2022-10-22T22:41:35.059Z,5.17
2022-10-22T22:44:02.121Z,4.57
2022-10-22T22:46:29.130Z,6.50
2022-10-22T22:48:56.077Z,3.77
2022-10-22T22:51:23.417Z,4.17
2022-10-22T22:53:51.012Z,4.87
2022-10-22T22:56:24.098Z,4.97
2022-10-22T22:58:51.278Z,3.10
2022-10-22T23:01:25.364Z,3.60
2022-10-22T23:04:04.901Z,4.50
2022-10-22T23:06:37.234Z,4.80
2022-10-22T23:09:05.964Z,4.37
2022-10-22T23:11:33.460Z,4.80
2022-10-22T23:14:02.448Z,5.07
2022-10-22T23:16:32.408Z,3.13
2022-10-22T23:19:00.742Z,3.50
2022-10-22T23:21:33.310Z,4.40
2022-10-22T23:24:02.986Z,5.10
2022-10-22T23:26:32.669Z,3.20
2022-10-22T23:29:14.927Z,2.83
2022-10-22T23:31:42.640Z,4.17
2022-10-22T23:34:11.811Z,7.83
2022-10-22T23:36:39.533Z,4.13
2022-10-22T23:39:12.843Z,3.53
2022-10-22T23:41:39.903Z,3.30
2022-10-22T23:44:07.860Z,2.97
2022-10-22T23:46:35.571Z,3.53
2022-10-22T23:49:02.415Z,4.07
2022-10-22T23:51:29.431Z,4.87
2022-10-22T23:53:58.928Z,2.83
2022-10-22T23:56:26.899Z,7.07
2022-10-22T23:58:54.809Z,5.00
